Superstar Express — 3FFX9 — position and weather

sailwx.info

Track history (hours):
 
Tides and Currents Weather Stations Pressure Air Temp Water Temp Dewpoint Dewpoint Depression Visibility Wind Speed Wind Dir Waves Ship Positions

Superstar Express

Operator: P & O Irish Sea

Last reported at 2019-Dec-29 23:00 UTC. Time now 2020-Jan-24 04:58 UTC.
Position N 29°57' W 090°01'.
Warning: this ship's position is 25 days out of date.

Length 183 m; draft 10.1 m.

Type: Cargo ship. MMSI: 351360000.

Date/timePositionNaut miles runAvg speedWind from/ knotsBaromVisibWave heightAir tempDewpointWater temp
2019-Dec-29 23:00N 29°57' W 090°01'  
2019-Dec-25 13:45N 30°07' W 090°59'0 0.0
2019-Dec-25 12:00N 30°07' W 090°59'0 0.0
2019-Dec-25 11:00N 30°07' W 090°59'0 0.0
2019-Dec-25 09:24N 30°07' W 090°59'0 0.0
2019-Dec-25 08:45N 30°07' W 090°59'0 0.0
2019-Dec-25 08:30N 30°07' W 090°59'0 0.0
2019-Dec-25 07:30N 30°07' W 090°59'0 0.0
2019-Dec-25 06:30N 30°07' W 090°59'0 0.0
2019-Dec-25 04:30N 30°07' W 090°59'0 0.0
2019-Dec-25 03:30N 30°07' W 090°59'0 0.0
2019-Dec-25 02:00N 30°07' W 090°59'0 0.0
2019-Dec-25 00:30N 30°07' W 090°59'0 0.0
2019-Dec-24 22:00N 30°07' W 090°59'0 0.0
2019-Dec-24 21:00N 30°07' W 090°59'0 0.0
2019-Dec-24 19:30N 30°07' W 090°59'0 0.0
2019-Dec-24 17:00N 30°07' W 090°59'0 0.0
2019-Dec-24 16:30N 30°07' W 090°59'0 0.0
2019-Dec-24 16:00N 30°07' W 090°59'0 0.0
2019-Dec-24 15:30N 30°07' W 090°59'0 0.0
2019-Dec-24 11:30N 30°07' W 090°59'0 0.0
2019-Dec-24 08:00N 30°07' W 090°59'0 0.0
2019-Dec-24 01:30N 30°07' W 090°59'0 0.0
2019-Dec-24 00:30N 30°07' W 090°59'0 0.0
2019-Dec-24 00:00N 30°07' W 090°59'0 0.0
2019-Dec-23 23:30N 30°07' W 090°59'0 0.0
2019-Dec-23 21:30N 30°07' W 090°59'0 0.0
2019-Dec-23 18:30N 30°07' W 090°59'5 2.4
2019-Dec-23 16:30N 30°05' W 090°54'0 0.3
2019-Dec-23 15:58N 30°05' W 090°54'0 0.0
2019-Dec-23 14:58N 30°05' W 090°54'32 2.8
2019-Dec-23 03:30N 29°58' W 090°18'14 7.0
2019-Dec-23 01:30N 29°57' W 090°01'7 2.5
2019-Dec-22 22:28N 29°50' W 090°00'0 0.0
2019-Dec-22 21:55N 29°50' W 090°00'0 0.0
2019-Dec-22 20:19N 29°50' W 090°00'0 0.0
2019-Dec-22 17:55N 29°50' W 090°00'0 0.0
2019-Dec-22 17:25N 29°50' W 090°00'0 0.0
2019-Dec-22 17:01N 29°50' W 090°00'0 0.0
2019-Dec-22 15:58N 29°50' W 090°00'0 0.0
2019-Dec-22 15:28N 29°50' W 090°00'0 0.0
2019-Dec-22 12:28N 29°50' W 090°00'1 0.1
2019-Dec-22 06:00N 29°49' W 090°00'4 8.5
2019-Dec-22 05:29N 29°45' W 090°01'  
Track history (hours):
 
Tides and Currents Weather Stations Pressure Air Temp Water Temp Dewpoint Dewpoint Depression Visibility Wind Speed Wind Dir Waves Ship Positions

Superstar Express

Operator: P & O Irish Sea

Last reported at 2019-Dec-29 23:00 UTC. Time now 2020-Jan-24 04:58 UTC.
Position N 29°57' W 090°01'.
Warning: this ship's position is 25 days out of date.

Length 183 m; draft 10.1 m.

Type: Cargo ship. MMSI: 351360000.

Date/timePositionNaut miles runAvg speedWind from/ knotsBaromVisibWave heightAir tempDewpointWater temp
2019-Dec-29 23:00N 29°57' W 090°01'  
2019-Dec-25 13:45N 30°07' W 090°59'0 0.0
2019-Dec-25 12:00N 30°07' W 090°59'0 0.0
2019-Dec-25 11:00N 30°07' W 090°59'0 0.0
2019-Dec-25 09:24N 30°07' W 090°59'0 0.0
2019-Dec-25 08:45N 30°07' W 090°59'0 0.0
2019-Dec-25 08:30N 30°07' W 090°59'0 0.0
2019-Dec-25 07:30N 30°07' W 090°59'0 0.0
2019-Dec-25 06:30N 30°07' W 090°59'0 0.0
2019-Dec-25 04:30N 30°07' W 090°59'0 0.0
2019-Dec-25 03:30N 30°07' W 090°59'0 0.0
2019-Dec-25 02:00N 30°07' W 090°59'0 0.0
2019-Dec-25 00:30N 30°07' W 090°59'0 0.0
2019-Dec-24 22:00N 30°07' W 090°59'0 0.0
2019-Dec-24 21:00N 30°07' W 090°59'0 0.0
2019-Dec-24 19:30N 30°07' W 090°59'0 0.0
2019-Dec-24 17:00N 30°07' W 090°59'0 0.0
2019-Dec-24 16:30N 30°07' W 090°59'0 0.0
2019-Dec-24 16:00N 30°07' W 090°59'0 0.0
2019-Dec-24 15:30N 30°07' W 090°59'0 0.0
2019-Dec-24 11:30N 30°07' W 090°59'0 0.0
2019-Dec-24 08:00N 30°07' W 090°59'0 0.0
2019-Dec-24 01:30N 30°07' W 090°59'0 0.0
2019-Dec-24 00:30N 30°07' W 090°59'0 0.0
2019-Dec-24 00:00N 30°07' W 090°59'0 0.0
2019-Dec-23 23:30N 30°07' W 090°59'0 0.0
2019-Dec-23 21:30N 30°07' W 090°59'0 0.0
2019-Dec-23 18:30N 30°07' W 090°59'5 2.4
2019-Dec-23 16:30N 30°05' W 090°54'0 0.3
2019-Dec-23 15:58N 30°05' W 090°54'0 0.0
2019-Dec-23 14:58N 30°05' W 090°54'32 2.8
2019-Dec-23 03:30N 29°58' W 090°18'14 7.0
2019-Dec-23 01:30N 29°57' W 090°01'7 2.5
2019-Dec-22 22:28N 29°50' W 090°00'0 0.0
2019-Dec-22 21:55N 29°50' W 090°00'0 0.0
2019-Dec-22 20:19N 29°50' W 090°00'0 0.0
2019-Dec-22 17:55N 29°50' W 090°00'0 0.0
2019-Dec-22 17:25N 29°50' W 090°00'0 0.0
2019-Dec-22 17:01N 29°50' W 090°00'0 0.0
2019-Dec-22 15:58N 29°50' W 090°00'0 0.0
2019-Dec-22 15:28N 29°50' W 090°00'0 0.0
2019-Dec-22 12:28N 29°50' W 090°00'1 0.1
2019-Dec-22 06:00N 29°49' W 090°00'4 8.5
2019-Dec-22 05:29N 29°45' W 090°01'  

Dump ship's entire track history